Paulo Da Gama — CSMM — position and weather

sailwx.info

Track history (hours):
 
Tides and Currents Weather Stations Pressure Air Temp Water Temp Dewpoint Dewpoint Depression Visibility Wind Speed Wind Dir Waves Ship Positions

Paulo Da Gama

Last reported at 2018-Feb-19 12:00 UTC. Time now 2018-Feb-19 12:20 UTC.
Position N 38°41' W 028°12'.

Length 50 m; draft 2.8 m.

Type: Cargo ship. MMSI: 204706000.

Date/timePositionNaut miles runAvg speedWind from/ knotsBaromVisibWave heightAir tempDewpointWater temp
2018-Feb-19 12:00N 38°41' W 028°12'0 0.0
2018-Feb-19 11:30N 38°41' W 028°12'0 0.0
2018-Feb-19 11:00N 38°41' W 028°12'0 0.0
2018-Feb-19 10:30N 38°41' W 028°12'0 0.0
2018-Feb-19 10:00N 38°41' W 028°12'0 0.0
2018-Feb-19 09:30N 38°41' W 028°12'0 0.0
2018-Feb-19 09:00N 38°41' W 028°12'0 0.0
2018-Feb-19 08:30N 38°41' W 028°12'2 3.9
2018-Feb-19 08:00N 38°39' W 028°12'5 9.1
2018-Feb-19 07:30N 38°37' W 028°07'5 9.5
2018-Feb-19 07:00N 38°35' W 028°01'5 9.4
2018-Feb-19 06:30N 38°32' W 027°56'5 9.0
2018-Feb-19 06:00N 38°30' W 027°50'4 8.6
2018-Feb-19 05:30N 38°31' W 027°45'5 9.2
2018-Feb-19 04:58N 38°32' W 027°39'4 8.9
2018-Feb-19 04:30N 38°33' W 027°34'4 8.8
2018-Feb-19 04:00N 38°34' W 027°28'4 8.8
2018-Feb-19 03:30N 38°35' W 027°23'5 8.8
2018-Feb-19 02:59N 38°36' W 027°17'6 8.6
2018-Feb-19 02:20N 38°37' W 027°10'3 8.6
2018-Feb-19 02:00N 38°37' W 027°06'5 7.2
2018-Feb-19 01:15N 38°41' W 027°02'2 7.2
2018-Feb-19 01:01N 38°43' W 027°02'1 2.9
2018-Feb-19 00:30N 38°43' W 027°03'0 0.0
2018-Feb-19 00:00N 38°43' W 027°03'0 0.0
2018-Feb-18 23:30N 38°43' W 027°03'0 0.0
2018-Feb-18 23:00N 38°43' W 027°03'0 0.0
2018-Feb-18 22:30N 38°43' W 027°03'0 0.0
2018-Feb-18 22:01N 38°43' W 027°03'0 0.0
2018-Feb-18 21:30N 38°43' W 027°03'0 0.0
2018-Feb-18 21:00N 38°43' W 027°03'0 0.0
2018-Feb-18 20:30N 38°43' W 027°03'0 0.0
2018-Feb-18 20:00N 38°43' W 027°03'0 0.0
2018-Feb-18 19:31N 38°43' W 027°03'0 0.0
2018-Feb-18 19:00N 38°43' W 027°03'0 0.0
2018-Feb-18 18:30N 38°43' W 027°03'0 0.0
2018-Feb-18 18:00N 38°43' W 027°03'0 0.0
2018-Feb-18 17:30N 38°43' W 027°03'0 0.0
2018-Feb-18 17:00N 38°43' W 027°03'0 0.0
2018-Feb-18 16:30N 38°43' W 027°03'0 0.0
2018-Feb-18 15:59N 38°43' W 027°03'0 0.0
2018-Feb-18 15:30N 38°43' W 027°03'0 0.0
2018-Feb-18 14:57N 38°43' W 027°03'0 0.0
2018-Feb-18 14:30N 38°43' W 027°03'0 0.0
2018-Feb-18 14:00N 38°43' W 027°03'0 0.0
2018-Feb-18 13:30N 38°43' W 027°03'0 0.0
2018-Feb-18 13:00N 38°43' W 027°03'0 0.0
2018-Feb-18 12:30N 38°43' W 027°03'0 0.0
2018-Feb-18 11:59N 38°43' W 027°03'0 0.0
2018-Feb-18 11:30N 38°43' W 027°03'0 0.0
2018-Feb-18 11:00N 38°43' W 027°03'0 0.0
2018-Feb-18 10:29N 38°43' W 027°03'0 0.0
2018-Feb-18 10:00N 38°43' W 027°03'0 0.0
2018-Feb-18 09:30N 38°43' W 027°03'0 0.0
2018-Feb-18 09:00N 38°43' W 027°03'0 0.0
2018-Feb-18 08:30N 38°43' W 027°03'0 0.0
2018-Feb-18 08:00N 38°43' W 027°03'0 0.0
2018-Feb-18 07:30N 38°43' W 027°03'0 0.0
2018-Feb-18 07:00N 38°43' W 027°03'0 0.0
2018-Feb-18 06:30N 38°43' W 027°03'0 0.0
2018-Feb-18 06:00N 38°43' W 027°03'0 0.0
2018-Feb-18 05:30N 38°43' W 027°03'0 0.0
2018-Feb-18 05:00N 38°43' W 027°03'0 0.0
2018-Feb-18 04:30N 38°43' W 027°03'0 0.0
2018-Feb-18 04:00N 38°43' W 027°03'0 0.0
2018-Feb-18 03:28N 38°43' W 027°03'0 0.0
2018-Feb-18 03:00N 38°43' W 027°03'0 0.0
2018-Feb-18 02:30N 38°43' W 027°03'0 0.0
2018-Feb-18 02:00N 38°43' W 027°03'0 0.0
2018-Feb-18 01:30N 38°43' W 027°03'0 0.0
2018-Feb-18 01:00N 38°43' W 027°03'0 0.0
2018-Feb-18 00:31N 38°43' W 027°03'0 0.0
2018-Feb-17 23:59N 38°43' W 027°03'0 0.0
2018-Feb-17 23:29N 38°43' W 027°03'0 0.0
2018-Feb-17 23:00N 38°43' W 027°03'0 0.0
2018-Feb-17 22:30N 38°43' W 027°03'0 0.0
2018-Feb-17 22:00N 38°43' W 027°03'0 0.0
2018-Feb-17 21:30N 38°43' W 027°03'0 0.0
2018-Feb-17 21:00N 38°43' W 027°03'0 0.0
2018-Feb-17 20:31N 38°43' W 027°03'0 0.0
2018-Feb-17 20:00N 38°43' W 027°03'0 0.0
2018-Feb-17 19:30N 38°43' W 027°03'0 0.0
2018-Feb-17 19:01N 38°43' W 027°03'0 0.0
2018-Feb-17 18:30N 38°43' W 027°03'0 0.0
2018-Feb-17 18:00N 38°43' W 027°03'0 0.0
2018-Feb-17 17:30N 38°43' W 027°03'0 0.0
2018-Feb-17 17:00N 38°43' W 027°03'0 0.0
2018-Feb-17 16:31N 38°43' W 027°03'0 0.0
2018-Feb-17 16:00N 38°43' W 027°03'0 0.0
2018-Feb-17 15:30N 38°43' W 027°03'0 0.0
2018-Feb-17 15:00N 38°43' W 027°03'0 0.0
2018-Feb-17 14:31N 38°43' W 027°03'0 0.0
2018-Feb-17 14:00N 38°43' W 027°03'0 0.0
2018-Feb-17 13:30N 38°43' W 027°03'0 0.0
2018-Feb-17 13:01N 38°43' W 027°03'0 0.0
2018-Feb-17 12:30N 38°43' W 027°03'0 0.0
2018-Feb-17 12:00N 38°43' W 027°03'0 0.0
2018-Feb-17 11:31N 38°43' W 027°03'0 0.0
2018-Feb-17 11:00N 38°43' W 027°03'0 0.0
2018-Feb-17 10:31N 38°43' W 027°03'0 0.0
2018-Feb-17 10:00N 38°43' W 027°03'0 0.0
2018-Feb-17 09:30N 38°43' W 027°03'0 0.0
2018-Feb-17 09:01N 38°43' W 027°03'0 0.0
2018-Feb-17 08:30N 38°43' W 027°03'0 0.0
2018-Feb-17 08:00N 38°43' W 027°03'0 0.0
2018-Feb-17 07:30N 38°43' W 027°03'0 0.0
2018-Feb-17 07:00N 38°43' W 027°03'0 0.0
2018-Feb-17 06:30N 38°43' W 027°03'0 0.0
2018-Feb-17 06:00N 38°43' W 027°03'0 0.0
2018-Feb-17 05:30N 38°43' W 027°03'0 0.0
2018-Feb-17 05:00N 38°43' W 027°03'0 0.0
2018-Feb-17 04:30N 38°43' W 027°03'0 0.0
2018-Feb-17 04:00N 38°43' W 027°03'0 0.0
2018-Feb-17 03:30N 38°43' W 027°03'0 0.0
2018-Feb-17 03:00N 38°43' W 027°03'0 0.0
2018-Feb-17 02:30N 38°43' W 027°03'0 0.0
2018-Feb-17 02:00N 38°43' W 027°03'0 0.0
2018-Feb-17 01:29N 38°43' W 027°03'0 0.0
2018-Feb-17 01:00N 38°43' W 027°03'0 0.0
2018-Feb-17 00:30N 38°43' W 027°03'0 0.0
2018-Feb-17 00:00N 38°43' W 027°03'0 0.0
2018-Feb-16 23:31N 38°43' W 027°03'0 0.0
2018-Feb-16 23:00N 38°43' W 027°03'0 0.0
2018-Feb-16 22:30N 38°43' W 027°03'0 0.0
2018-Feb-16 22:00N 38°43' W 027°03'0 0.0
2018-Feb-16 21:30N 38°43' W 027°03'0 0.0
2018-Feb-16 21:00N 38°43' W 027°03'0 0.1
2018-Feb-16 20:30N 38°43' W 027°03'3 6.7
2018-Feb-16 20:00N 38°46' W 027°02'5 9.3
2018-Feb-16 19:30N 38°49' W 027°07'12 9.0
2018-Feb-16 18:13N 38°53' W 027°21'2 9.0
2018-Feb-16 18:00N 38°53' W 027°23'4 9.0
2018-Feb-16 17:30N 38°55' W 027°28'5 9.4
2018-Feb-16 17:00N 38°56' W 027°34'5 9.6
2018-Feb-16 16:30N 38°58' W 027°40'5 9.6
2018-Feb-16 16:00N 38°60' W 027°46'5 9.8
2018-Feb-16 15:30N 39°01' W 027°52'3 0.4
2018-Feb-16 07:26N 39°03' W 027°55'4 9.0
2018-Feb-16 07:00N 39°02' W 027°50'5 9.0
2018-Feb-16 06:30N 39°01' W 027°45'4 8.6
2018-Feb-16 06:00N 38°59' W 027°40'4 8.6
2018-Feb-16 05:30N 38°58' W 027°34'5 8.5
2018-Feb-16 04:58N 38°56' W 027°29'4 8.5
2018-Feb-16 04:28N 38°54' W 027°24'13 8.5
2018-Feb-16 02:53N 38°49' W 027°08'3 8.4
2018-Feb-16 02:30N 38°48' W 027°04'4 8.0
2018-Feb-16 02:00N 38°45' W 027°01'3 5.4
2018-Feb-16 01:30N 38°43' W 027°03'0 0.0
2018-Feb-16 01:00N 38°43' W 027°03'0 0.0
2018-Feb-16 00:30N 38°43' W 027°03'0 0.0
2018-Feb-16 00:00N 38°43' W 027°03'0 0.0
2018-Feb-15 23:30N 38°43' W 027°03'0 0.0
2018-Feb-15 23:00N 38°43' W 027°03'0 0.0
2018-Feb-15 22:30N 38°43' W 027°03'0 0.0
2018-Feb-15 22:00N 38°43' W 027°03'0 0.0
2018-Feb-15 21:30N 38°43' W 027°03'0 0.0
2018-Feb-15 21:00N 38°43' W 027°03'0 0.0
2018-Feb-15 20:30N 38°43' W 027°03'0 0.0
2018-Feb-15 19:59N 38°43' W 027°03'0 0.0
2018-Feb-15 19:30N 38°43' W 027°03'0 0.0
2018-Feb-15 19:00N 38°43' W 027°03'0 0.0
2018-Feb-15 18:30N 38°43' W 027°03'0 0.0
2018-Feb-15 18:00N 38°43' W 027°03'0 0.0
2018-Feb-15 17:30N 38°43' W 027°03'0 0.0
2018-Feb-15 17:00N 38°43' W 027°03'0 0.0
2018-Feb-15 16:31N 38°43' W 027°03'0 0.0
2018-Feb-15 16:00N 38°43' W 027°03'0 0.0
2018-Feb-15 15:30N 38°43' W 027°03'0 0.0
2018-Feb-15 15:00N 38°43' W 027°03'0 0.0
2018-Feb-15 14:30N 38°43' W 027°03'0 0.0
2018-Feb-15 14:01N 38°43' W 027°03'0 0.0
2018-Feb-15 13:30N 38°43' W 027°03'0 0.0
2018-Feb-15 13:00N 38°43' W 027°03'0 0.0
2018-Feb-15 12:30N 38°43' W 027°03'0 0.0
2018-Feb-15 12:01N 38°43' W 027°03'0 0.0
2018-Feb-15 11:30N 38°43' W 027°03'0 0.0
2018-Feb-15 11:00N 38°43' W 027°03'0 0.0
2018-Feb-15 10:30N 38°43' W 027°03'0 0.0
2018-Feb-15 10:00N 38°43' W 027°03'0 0.0
2018-Feb-15 09:30N 38°43' W 027°03'0 0.0
2018-Feb-15 09:00N 38°43' W 027°03'0 0.0
2018-Feb-15 08:30N 38°43' W 027°03'0 0.0
2018-Feb-15 08:00N 38°43' W 027°03'0 0.0
2018-Feb-15 07:30N 38°43' W 027°03'0 0.0
2018-Feb-15 07:00N 38°43' W 027°03'0 0.0
2018-Feb-15 06:31N 38°43' W 027°03'0 0.0
2018-Feb-15 06:00N 38°43' W 027°03'0 0.0
2018-Feb-15 05:31N 38°43' W 027°03'0 0.0
2018-Feb-15 05:00N 38°43' W 027°03'0 0.0
2018-Feb-15 04:30N 38°43' W 027°03'0 0.0
2018-Feb-15 04:01N 38°43' W 027°03'0 0.0
2018-Feb-15 03:30N 38°43' W 027°03'0 0.0
2018-Feb-15 03:00N 38°43' W 027°03'0 0.0
2018-Feb-15 02:31N 38°43' W 027°03'0 0.0
2018-Feb-15 02:00N 38°43' W 027°03'0 0.0
2018-Feb-15 01:30N 38°43' W 027°03'0 0.0
2018-Feb-15 01:00N 38°43' W 027°03'0 0.0
2018-Feb-15 00:31N 38°43' W 027°03'0 0.0
2018-Feb-15 00:00N 38°43' W 027°03'0 0.0
2018-Feb-14 23:30N 38°43' W 027°03'0 0.7
2018-Feb-14 23:01N 38°43' W 027°03'6 6.6
2018-Feb-14 22:04N 38°37' W 027°06'110.1
2018-Feb-14 21:56N 38°37' W 027°08'410.0
2018-Feb-14 21:29N 38°36' W 027°14'7 9.7
2018-Feb-14 20:48N 38°35' W 027°22'3 9.6
2018-Feb-14 20:30N 38°34' W 027°26'5 9.9
2018-Feb-14 20:00N 38°33' W 027°32'5 9.9
2018-Feb-14 19:31N 38°33' W 027°38'5 9.7
2018-Feb-14 19:00N 38°32' W 027°44'5 9.8
2018-Feb-14 18:30N 38°31' W 027°50'510.0
2018-Feb-14 18:00N 38°31' W 027°57'510.0
2018-Feb-14 17:31N 38°31' W 028°03'5 9.8
2018-Feb-14 17:00N 38°32' W 028°09'510.0
2018-Feb-14 16:30N 38°32' W 028°16'3 5.6
2018-Feb-14 16:01N 38°32' W 028°19'0 0.0
2018-Feb-14 15:30N 38°32' W 028°19'0 0.0
2018-Feb-14 15:00N 38°32' W 028°19'0 0.0
2018-Feb-14 14:31N 38°32' W 028°19'0 0.0
2018-Feb-14 14:00N 38°32' W 028°19'0 0.0
2018-Feb-14 13:30N 38°32' W 028°19'0 0.0
2018-Feb-14 13:00N 38°32' W 028°19'0 0.0
2018-Feb-14 12:30N 38°32' W 028°19'0 0.0
2018-Feb-14 12:00N 38°32' W 028°19'0 0.0
2018-Feb-14 11:30N 38°32' W 028°19'0 0.0
2018-Feb-14 11:00N 38°32' W 028°19'0 0.0
2018-Feb-14 10:30N 38°32' W 028°19'0 0.0
2018-Feb-14 10:00N 38°32' W 028°19'0 0.0
2018-Feb-14 09:30N 38°32' W 028°19'0 0.0
2018-Feb-14 09:00N 38°32' W 028°19'1 2.0
2018-Feb-14 08:30N 38°32' W 028°18'4 8.6
2018-Feb-14 08:00N 38°32' W 028°12'4 8.6
2018-Feb-14 07:30N 38°32' W 028°07'4 8.8
2018-Feb-14 07:00N 38°31' W 028°01'5 8.9
2018-Feb-14 06:30N 38°31' W 027°56'4 8.8
2018-Feb-14 06:00N 38°31' W 027°50'4 9.0
2018-Feb-14 05:30N 38°31' W 027°44'5 8.9
2018-Feb-14 04:59N 38°32' W 027°39'4 8.4
2018-Feb-14 04:31N 38°33' W 027°34'4 8.2
2018-Feb-14 04:00N 38°34' W 027°28'4 8.0
2018-Feb-14 03:30N 38°34' W 027°23'5 8.1
2018-Feb-14 02:54N 38°35' W 027°17'5 8.4
2018-Feb-14 02:19N 38°36' W 027°11'3 8.7
2018-Feb-14 02:00N 38°37' W 027°08'7 8.2
2018-Feb-14 01:12N 38°41' W 027°01'2 8.6
2018-Feb-14 00:58N 38°43' W 027°02'1 3.1
2018-Feb-14 00:30N 38°43' W 027°03'0 0.0
2018-Feb-14 00:00N 38°43' W 027°03'0 0.0
2018-Feb-13 23:31N 38°43' W 027°03'0 0.0
2018-Feb-13 23:00N 38°43' W 027°03'0 0.0
2018-Feb-13 22:30N 38°43' W 027°03'0 0.0
2018-Feb-13 22:00N 38°43' W 027°03'0 0.0
2018-Feb-13 21:30N 38°43' W 027°03'0 0.0
2018-Feb-13 21:00N 38°43' W 027°03'0 0.0
2018-Feb-13 20:30N 38°43' W 027°03'0 0.0
2018-Feb-13 20:00N 38°43' W 027°03'0 0.0
2018-Feb-13 19:30N 38°43' W 027°03'0 0.0
2018-Feb-13 19:01N 38°43' W 027°03'0 0.0
2018-Feb-13 18:30N 38°43' W 027°03'0 0.0
2018-Feb-13 18:00N 38°43' W 027°03'0 0.0
2018-Feb-13 17:30N 38°43' W 027°03'0 0.0
2018-Feb-13 17:00N 38°43' W 027°03'0 0.0
2018-Feb-13 16:30N 38°43' W 027°03'0 0.0
2018-Feb-13 16:00N 38°43' W 027°03'0 0.0
2018-Feb-13 15:31N 38°43' W 027°03'0 0.0
2018-Feb-13 15:00N 38°43' W 027°03'0 0.0
2018-Feb-13 14:30N 38°43' W 027°03'0 0.0
2018-Feb-13 14:01N 38°43' W 027°03'0 0.0
2018-Feb-13 13:30N 38°43' W 027°03'0 0.0
2018-Feb-13 13:00N 38°43' W 027°03'0 0.0
2018-Feb-13 12:30N 38°43' W 027°03'0 0.0
2018-Feb-13 12:00N 38°43' W 027°03'0 0.0
2018-Feb-13 11:30N 38°43' W 027°03'0 0.0
2018-Feb-13 11:00N 38°43' W 027°03'0 0.0
2018-Feb-13 10:30N 38°43' W 027°03'0 0.0
2018-Feb-13 10:00N 38°43' W 027°03'0 0.0
2018-Feb-13 09:30N 38°43' W 027°03'0 0.0
2018-Feb-13 09:00N 38°43' W 027°03'0 0.0
2018-Feb-13 08:30N 38°43' W 027°03'0 0.0
2018-Feb-13 08:00N 38°43' W 027°03'0 0.0
2018-Feb-13 07:30N 38°43' W 027°03'0 0.0
2018-Feb-13 07:00N 38°43' W 027°03'0 0.0
2018-Feb-13 06:30N 38°43' W 027°03'0 0.0
2018-Feb-13 06:00N 38°43' W 027°03'0 0.0
2018-Feb-13 05:30N 38°43' W 027°03'0 0.0
2018-Feb-13 05:00N 38°43' W 027°03'0 0.0
2018-Feb-13 04:30N 38°43' W 027°03'0 0.0
2018-Feb-13 04:00N 38°43' W 027°03'0 0.0
2018-Feb-13 03:30N 38°43' W 027°03'0 0.0
2018-Feb-13 03:00N 38°43' W 027°03'0 0.0
2018-Feb-13 02:30N 38°43' W 027°03'0 0.0
2018-Feb-13 02:00N 38°43' W 027°03'0 0.0
2018-Feb-13 01:30N 38°43' W 027°03'0 0.0
2018-Feb-13 01:00N 38°43' W 027°03'0 0.0
2018-Feb-13 00:30N 38°43' W 027°03'0 0.0
2018-Feb-13 00:00N 38°43' W 027°03'0 0.0
2018-Feb-12 23:30N 38°43' W 027°03'0 0.0
2018-Feb-12 23:00N 38°43' W 027°03'0 0.0
2018-Feb-12 22:30N 38°43' W 027°03'0 0.0
2018-Feb-12 22:00N 38°43' W 027°03'0 0.0
2018-Feb-12 21:30N 38°43' W 027°03'0 0.0
2018-Feb-12 21:00N 38°43' W 027°03'0 0.0
2018-Feb-12 20:30N 38°43' W 027°03'0 0.0
2018-Feb-12 20:00N 38°43' W 027°03'0 0.0
2018-Feb-12 19:30N 38°43' W 027°03'0 0.0
2018-Feb-12 19:01N 38°43' W 027°03'0 0.0
2018-Feb-12 18:30N 38°43' W 027°03'0 0.0
2018-Feb-12 18:00N 38°43' W 027°03'0 0.0
2018-Feb-12 17:30N 38°43' W 027°03'0 0.0
2018-Feb-12 17:00N 38°43' W 027°03'0 0.0
2018-Feb-12 16:30N 38°43' W 027°03'0 0.0
2018-Feb-12 16:00N 38°43' W 027°03'0 0.0
2018-Feb-12 15:30N 38°43' W 027°03'0 0.0
2018-Feb-12 15:00N 38°43' W 027°03'0 0.0
2018-Feb-12 14:30N 38°43' W 027°03'0 0.0
2018-Feb-12 14:00N 38°43' W 027°03'0 0.0
2018-Feb-12 13:30N 38°43' W 027°03'0 0.0
2018-Feb-12 13:01N 38°43' W 027°03'0 0.0
2018-Feb-12 12:30N 38°43' W 027°03'0 0.0
2018-Feb-12 12:00N 38°43' W 027°03'0 0.0
2018-Feb-12 11:30N 38°43' W 027°03'0 0.0
2018-Feb-12 11:00N 38°43' W 027°03'0 0.0
2018-Feb-12 10:31N 38°43' W 027°03'0 0.0
2018-Feb-12 10:00N 38°43' W 027°03'0 0.0
2018-Feb-12 09:30N 38°43' W 027°03'0 0.0
2018-Feb-12 09:01N 38°43' W 027°03'0 0.0
2018-Feb-12 08:30N 38°43' W 027°03'0 0.0
2018-Feb-12 08:00N 38°43' W 027°03'0 0.0
2018-Feb-12 07:31N 38°43' W 027°03'0 0.0
2018-Feb-12 07:00N 38°43' W 027°03'0 0.0
2018-Feb-12 06:30N 38°43' W 027°03'0 0.0
2018-Feb-12 06:01N 38°43' W 027°03'0 0.0
2018-Feb-12 05:30N 38°43' W 027°03'0 0.0
2018-Feb-12 05:00N 38°43' W 027°03'0 0.0
2018-Feb-12 04:30N 38°43' W 027°03'0 0.0
2018-Feb-12 04:00N 38°43' W 027°03'0 0.0
2018-Feb-12 03:30N 38°43' W 027°03'0 0.0
2018-Feb-12 03:00N 38°43' W 027°03'0 0.0
2018-Feb-12 02:30N 38°43' W 027°03'0 0.0
2018-Feb-12 02:00N 38°43' W 027°03'0 0.0
2018-Feb-12 01:30N 38°43' W 027°03'0 0.0
2018-Feb-12 01:00N 38°43' W 027°03'0 0.0
2018-Feb-12 00:30N 38°43' W 027°03'0 0.0
2018-Feb-12 00:00N 38°43' W 027°03'0 0.0
2018-Feb-11 23:30N 38°43' W 027°03'0 0.0
2018-Feb-11 23:00N 38°43' W 027°03'0 0.0
2018-Feb-11 22:30N 38°43' W 027°03'0 0.0
2018-Feb-11 22:00N 38°43' W 027°03'0 0.0
2018-Feb-11 21:30N 38°43' W 027°03'0 0.0
2018-Feb-11 21:00N 38°43' W 027°03'0 0.0
2018-Feb-11 20:30N 38°43' W 027°03'0 0.0
2018-Feb-11 20:00N 38°43' W 027°03'0 0.0
2018-Feb-11 19:30N 38°43' W 027°03'0 0.0
2018-Feb-11 19:00N 38°43' W 027°03'0 0.0
2018-Feb-11 18:30N 38°43' W 027°03'0 0.0
2018-Feb-11 18:00N 38°43' W 027°03'0 0.0
2018-Feb-11 17:30N 38°43' W 027°03'0 0.0
2018-Feb-11 17:00N 38°43' W 027°03'0 0.0
2018-Feb-11 16:30N 38°43' W 027°03'0 0.0
2018-Feb-11 16:00N 38°43' W 027°03'0 0.0
2018-Feb-11 15:30N 38°43' W 027°03'0 0.0
2018-Feb-11 15:00N 38°43' W 027°03'0 0.0
2018-Feb-11 14:30N 38°43' W 027°03'0 0.0
2018-Feb-11 13:57N 38°43' W 027°03'0 0.0
2018-Feb-11 13:30N 38°43' W 027°03'0 0.0
2018-Feb-11 13:00N 38°43' W 027°03'0 0.0
2018-Feb-11 12:30N 38°43' W 027°03'0 0.0
2018-Feb-11 12:00N 38°43' W 027°03'0 0.0
2018-Feb-11 11:30N 38°43' W 027°03'0 0.0
2018-Feb-11 11:00N 38°43' W 027°03'0 0.0
2018-Feb-11 10:30N 38°43' W 027°03'0 0.0
2018-Feb-11 10:00N 38°43' W 027°03'0 0.0
2018-Feb-11 09:30N 38°43' W 027°03'0 0.0
2018-Feb-11 09:01N 38°43' W 027°03'0 0.0
2018-Feb-11 08:30N 38°43' W 027°03'0 0.0
2018-Feb-11 08:00N 38°43' W 027°03'0 0.0
2018-Feb-11 07:30N 38°43' W 027°03'0 0.0
2018-Feb-11 07:00N 38°43' W 027°03'0 0.0
2018-Feb-11 06:30N 38°43' W 027°03'0 0.0
2018-Feb-11 06:01N 38°43' W 027°03'0 0.0
2018-Feb-11 05:31N 38°43' W 027°03'0 0.0
2018-Feb-11 05:00N 38°43' W 027°03'0 0.0
2018-Feb-11 04:30N 38°43' W 027°03'0 0.0
2018-Feb-11 04:00N 38°43' W 027°03'0 0.0
2018-Feb-11 03:30N 38°43' W 027°03'0 0.0
2018-Feb-11 03:01N 38°43' W 027°03'0 0.0
2018-Feb-11 02:30N 38°43' W 027°03'0 0.0
2018-Feb-11 02:00N 38°43' W 027°03'0 0.0
2018-Feb-11 01:30N 38°43' W 027°03'0 0.0
2018-Feb-11 01:00N 38°43' W 027°03'0 0.0
2018-Feb-11 00:30N 38°43' W 027°03'0 0.0
2018-Feb-11 00:00N 38°43' W 027°03'0 0.0
2018-Feb-10 23:30N 38°43' W 027°03'0 0.0
2018-Feb-10 23:01N 38°43' W 027°03'0 0.0
2018-Feb-10 22:30N 38°43' W 027°03'0 0.0
2018-Feb-10 22:00N 38°43' W 027°03'0 0.0
2018-Feb-10 21:31N 38°43' W 027°03'0 0.0
2018-Feb-10 21:00N 38°43' W 027°03'0 0.0
2018-Feb-10 20:30N 38°43' W 027°03'0 0.0
2018-Feb-10 20:00N 38°43' W 027°03'0 0.0
2018-Feb-10 19:30N 38°43' W 027°03'0 0.0
2018-Feb-10 19:00N 38°43' W 027°03'0 0.0
2018-Feb-10 18:30N 38°43' W 027°03'0 0.0
2018-Feb-10 18:00N 38°43' W 027°03'0 0.0
2018-Feb-10 17:30N 38°43' W 027°03'0 0.0
2018-Feb-10 17:00N 38°43' W 027°03'0 0.0
2018-Feb-10 16:30N 38°43' W 027°03'0 0.0
2018-Feb-10 16:00N 38°43' W 027°03'0 0.0
2018-Feb-10 15:30N 38°43' W 027°03'0 0.0
2018-Feb-10 15:00N 38°43' W 027°03'0 0.0
2018-Feb-10 14:30N 38°43' W 027°03'0 0.0
2018-Feb-10 14:00N 38°43' W 027°03'0 0.0
2018-Feb-10 13:30N 38°43' W 027°03'0 0.0
2018-Feb-10 13:00N 38°43' W 027°03'0 0.0
2018-Feb-10 12:30N 38°43' W 027°03'0 0.0
2018-Feb-10 12:00N 38°43' W 027°03'0 0.0
2018-Feb-10 11:30N 38°43' W 027°03'0 0.0
2018-Feb-10 11:00N 38°43' W 027°03'0 0.0
2018-Feb-10 10:30N 38°43' W 027°03'0 0.0
2018-Feb-10 10:00N 38°43' W 027°03'0 0.0
2018-Feb-10 09:30N 38°43' W 027°03'0 0.0
2018-Feb-10 09:00N 38°43' W 027°03'0 0.0
2018-Feb-10 08:30N 38°43' W 027°03'0 0.0
2018-Feb-10 08:00N 38°43' W 027°03'0 0.0
2018-Feb-10 07:30N 38°43' W 027°03'0 0.0
2018-Feb-10 07:01N 38°43' W 027°03'0 0.0
2018-Feb-10 06:30N 38°43' W 027°03'0 0.0
2018-Feb-10 06:00N 38°43' W 027°03'0 0.0
2018-Feb-10 05:30N 38°43' W 027°03'0 0.0
2018-Feb-10 05:00N 38°43' W 027°03'0 0.0
2018-Feb-10 04:29N 38°43' W 027°03'0 0.0
2018-Feb-10 04:00N 38°43' W 027°03'0 0.0
2018-Feb-10 03:31N 38°43' W 027°03'0 0.0
2018-Feb-10 03:00N 38°43' W 027°03'0 0.0
2018-Feb-10 02:30N 38°43' W 027°03'0 0.0
2018-Feb-10 02:00N 38°43' W 027°03'0 0.0
2018-Feb-10 01:31N 38°43' W 027°03'0 0.0
2018-Feb-10 01:00N 38°43' W 027°03'0 0.0
2018-Feb-10 00:30N 38°43' W 027°03'0 0.0
2018-Feb-10 00:00N 38°43' W 027°03'0 0.0
2018-Feb-09 23:30N 38°43' W 027°03'0 0.0
2018-Feb-09 23:00N 38°43' W 027°03'0 0.0
2018-Feb-09 22:46N 38°43' W 027°03'28 7.4
2018-Feb-09 19:00N 38°57' W 027°34'5 9.6
2018-Feb-09 18:30N 38°58' W 027°40'  
Track history (hours):
 
Tides and Currents Weather Stations Pressure Air Temp Water Temp Dewpoint Dewpoint Depression Visibility Wind Speed Wind Dir Waves Ship Positions

Paulo Da Gama

Last reported at 2018-Feb-19 12:00 UTC. Time now 2018-Feb-19 12:20 UTC.
Position N 38°41' W 028°12'.

Length 50 m; draft 2.8 m.

Type: Cargo ship. MMSI: 204706000.

Date/timePositionNaut miles runAvg speedWind from/ knotsBaromVisibWave heightAir tempDewpointWater temp
2018-Feb-19 12:00N 38°41' W 028°12'0 0.0
2018-Feb-19 11:30N 38°41' W 028°12'0 0.0
2018-Feb-19 11:00N 38°41' W 028°12'0 0.0
2018-Feb-19 10:30N 38°41' W 028°12'0 0.0
2018-Feb-19 10:00N 38°41' W 028°12'0 0.0
2018-Feb-19 09:30N 38°41' W 028°12'0 0.0
2018-Feb-19 09:00N 38°41' W 028°12'0 0.0
2018-Feb-19 08:30N 38°41' W 028°12'2 3.9
2018-Feb-19 08:00N 38°39' W 028°12'5 9.1
2018-Feb-19 07:30N 38°37' W 028°07'5 9.5
2018-Feb-19 07:00N 38°35' W 028°01'5 9.4
2018-Feb-19 06:30N 38°32' W 027°56'5 9.0
2018-Feb-19 06:00N 38°30' W 027°50'4 8.6
2018-Feb-19 05:30N 38°31' W 027°45'5 9.2
2018-Feb-19 04:58N 38°32' W 027°39'4 8.9
2018-Feb-19 04:30N 38°33' W 027°34'4 8.8
2018-Feb-19 04:00N 38°34' W 027°28'4 8.8
2018-Feb-19 03:30N 38°35' W 027°23'5 8.8
2018-Feb-19 02:59N 38°36' W 027°17'6 8.6
2018-Feb-19 02:20N 38°37' W 027°10'3 8.6
2018-Feb-19 02:00N 38°37' W 027°06'5 7.2
2018-Feb-19 01:15N 38°41' W 027°02'2 7.2
2018-Feb-19 01:01N 38°43' W 027°02'1 2.9
2018-Feb-19 00:30N 38°43' W 027°03'0 0.0
2018-Feb-19 00:00N 38°43' W 027°03'0 0.0
2018-Feb-18 23:30N 38°43' W 027°03'0 0.0
2018-Feb-18 23:00N 38°43' W 027°03'0 0.0
2018-Feb-18 22:30N 38°43' W 027°03'0 0.0
2018-Feb-18 22:01N 38°43' W 027°03'0 0.0
2018-Feb-18 21:30N 38°43' W 027°03'0 0.0
2018-Feb-18 21:00N 38°43' W 027°03'0 0.0
2018-Feb-18 20:30N 38°43' W 027°03'0 0.0
2018-Feb-18 20:00N 38°43' W 027°03'0 0.0
2018-Feb-18 19:31N 38°43' W 027°03'0 0.0
2018-Feb-18 19:00N 38°43' W 027°03'0 0.0
2018-Feb-18 18:30N 38°43' W 027°03'0 0.0
2018-Feb-18 18:00N 38°43' W 027°03'0 0.0
2018-Feb-18 17:30N 38°43' W 027°03'0 0.0
2018-Feb-18 17:00N 38°43' W 027°03'0 0.0
2018-Feb-18 16:30N 38°43' W 027°03'0 0.0
2018-Feb-18 15:59N 38°43' W 027°03'0 0.0
2018-Feb-18 15:30N 38°43' W 027°03'0 0.0
2018-Feb-18 14:57N 38°43' W 027°03'0 0.0
2018-Feb-18 14:30N 38°43' W 027°03'0 0.0
2018-Feb-18 14:00N 38°43' W 027°03'0 0.0
2018-Feb-18 13:30N 38°43' W 027°03'0 0.0
2018-Feb-18 13:00N 38°43' W 027°03'0 0.0
2018-Feb-18 12:30N 38°43' W 027°03'0 0.0
2018-Feb-18 11:59N 38°43' W 027°03'0 0.0
2018-Feb-18 11:30N 38°43' W 027°03'0 0.0
2018-Feb-18 11:00N 38°43' W 027°03'0 0.0
2018-Feb-18 10:29N 38°43' W 027°03'0 0.0
2018-Feb-18 10:00N 38°43' W 027°03'0 0.0
2018-Feb-18 09:30N 38°43' W 027°03'0 0.0
2018-Feb-18 09:00N 38°43' W 027°03'0 0.0
2018-Feb-18 08:30N 38°43' W 027°03'0 0.0
2018-Feb-18 08:00N 38°43' W 027°03'0 0.0
2018-Feb-18 07:30N 38°43' W 027°03'0 0.0
2018-Feb-18 07:00N 38°43' W 027°03'0 0.0
2018-Feb-18 06:30N 38°43' W 027°03'0 0.0
2018-Feb-18 06:00N 38°43' W 027°03'0 0.0
2018-Feb-18 05:30N 38°43' W 027°03'0 0.0
2018-Feb-18 05:00N 38°43' W 027°03'0 0.0
2018-Feb-18 04:30N 38°43' W 027°03'0 0.0
2018-Feb-18 04:00N 38°43' W 027°03'0 0.0
2018-Feb-18 03:28N 38°43' W 027°03'0 0.0
2018-Feb-18 03:00N 38°43' W 027°03'0 0.0
2018-Feb-18 02:30N 38°43' W 027°03'0 0.0
2018-Feb-18 02:00N 38°43' W 027°03'0 0.0
2018-Feb-18 01:30N 38°43' W 027°03'0 0.0
2018-Feb-18 01:00N 38°43' W 027°03'0 0.0
2018-Feb-18 00:31N 38°43' W 027°03'0 0.0
2018-Feb-17 23:59N 38°43' W 027°03'0 0.0
2018-Feb-17 23:29N 38°43' W 027°03'0 0.0
2018-Feb-17 23:00N 38°43' W 027°03'0 0.0
2018-Feb-17 22:30N 38°43' W 027°03'0 0.0
2018-Feb-17 22:00N 38°43' W 027°03'0 0.0
2018-Feb-17 21:30N 38°43' W 027°03'0 0.0
2018-Feb-17 21:00N 38°43' W 027°03'0 0.0
2018-Feb-17 20:31N 38°43' W 027°03'0 0.0
2018-Feb-17 20:00N 38°43' W 027°03'0 0.0
2018-Feb-17 19:30N 38°43' W 027°03'0 0.0
2018-Feb-17 19:01N 38°43' W 027°03'0 0.0
2018-Feb-17 18:30N 38°43' W 027°03'0 0.0
2018-Feb-17 18:00N 38°43' W 027°03'0 0.0
2018-Feb-17 17:30N 38°43' W 027°03'0 0.0
2018-Feb-17 17:00N 38°43' W 027°03'0 0.0
2018-Feb-17 16:31N 38°43' W 027°03'0 0.0
2018-Feb-17 16:00N 38°43' W 027°03'0 0.0
2018-Feb-17 15:30N 38°43' W 027°03'0 0.0
2018-Feb-17 15:00N 38°43' W 027°03'0 0.0
2018-Feb-17 14:31N 38°43' W 027°03'0 0.0
2018-Feb-17 14:00N 38°43' W 027°03'0 0.0
2018-Feb-17 13:30N 38°43' W 027°03'0 0.0
2018-Feb-17 13:01N 38°43' W 027°03'0 0.0
2018-Feb-17 12:30N 38°43' W 027°03'0 0.0
2018-Feb-17 12:00N 38°43' W 027°03'0 0.0
2018-Feb-17 11:31N 38°43' W 027°03'0 0.0
2018-Feb-17 11:00N 38°43' W 027°03'0 0.0
2018-Feb-17 10:31N 38°43' W 027°03'0 0.0
2018-Feb-17 10:00N 38°43' W 027°03'0 0.0
2018-Feb-17 09:30N 38°43' W 027°03'0 0.0
2018-Feb-17 09:01N 38°43' W 027°03'0 0.0
2018-Feb-17 08:30N 38°43' W 027°03'0 0.0
2018-Feb-17 08:00N 38°43' W 027°03'0 0.0
2018-Feb-17 07:30N 38°43' W 027°03'0 0.0
2018-Feb-17 07:00N 38°43' W 027°03'0 0.0
2018-Feb-17 06:30N 38°43' W 027°03'0 0.0
2018-Feb-17 06:00N 38°43' W 027°03'0 0.0
2018-Feb-17 05:30N 38°43' W 027°03'0 0.0
2018-Feb-17 05:00N 38°43' W 027°03'0 0.0
2018-Feb-17 04:30N 38°43' W 027°03'0 0.0
2018-Feb-17 04:00N 38°43' W 027°03'0 0.0
2018-Feb-17 03:30N 38°43' W 027°03'0 0.0
2018-Feb-17 03:00N 38°43' W 027°03'0 0.0
2018-Feb-17 02:30N 38°43' W 027°03'0 0.0
2018-Feb-17 02:00N 38°43' W 027°03'0 0.0
2018-Feb-17 01:29N 38°43' W 027°03'0 0.0
2018-Feb-17 01:00N 38°43' W 027°03'0 0.0
2018-Feb-17 00:30N 38°43' W 027°03'0 0.0
2018-Feb-17 00:00N 38°43' W 027°03'0 0.0
2018-Feb-16 23:31N 38°43' W 027°03'0 0.0
2018-Feb-16 23:00N 38°43' W 027°03'0 0.0
2018-Feb-16 22:30N 38°43' W 027°03'0 0.0
2018-Feb-16 22:00N 38°43' W 027°03'0 0.0
2018-Feb-16 21:30N 38°43' W 027°03'0 0.0
2018-Feb-16 21:00N 38°43' W 027°03'0 0.1
2018-Feb-16 20:30N 38°43' W 027°03'3 6.7
2018-Feb-16 20:00N 38°46' W 027°02'5 9.3
2018-Feb-16 19:30N 38°49' W 027°07'12 9.0
2018-Feb-16 18:13N 38°53' W 027°21'2 9.0
2018-Feb-16 18:00N 38°53' W 027°23'4 9.0
2018-Feb-16 17:30N 38°55' W 027°28'5 9.4
2018-Feb-16 17:00N 38°56' W 027°34'5 9.6
2018-Feb-16 16:30N 38°58' W 027°40'5 9.6
2018-Feb-16 16:00N 38°60' W 027°46'5 9.8
2018-Feb-16 15:30N 39°01' W 027°52'3 0.4
2018-Feb-16 07:26N 39°03' W 027°55'4 9.0
2018-Feb-16 07:00N 39°02' W 027°50'5 9.0
2018-Feb-16 06:30N 39°01' W 027°45'4 8.6
2018-Feb-16 06:00N 38°59' W 027°40'4 8.6
2018-Feb-16 05:30N 38°58' W 027°34'5 8.5
2018-Feb-16 04:58N 38°56' W 027°29'4 8.5
2018-Feb-16 04:28N 38°54' W 027°24'13 8.5
2018-Feb-16 02:53N 38°49' W 027°08'3 8.4
2018-Feb-16 02:30N 38°48' W 027°04'4 8.0
2018-Feb-16 02:00N 38°45' W 027°01'3 5.4
2018-Feb-16 01:30N 38°43' W 027°03'0 0.0
2018-Feb-16 01:00N 38°43' W 027°03'0 0.0
2018-Feb-16 00:30N 38°43' W 027°03'0 0.0
2018-Feb-16 00:00N 38°43' W 027°03'0 0.0
2018-Feb-15 23:30N 38°43' W 027°03'0 0.0
2018-Feb-15 23:00N 38°43' W 027°03'0 0.0
2018-Feb-15 22:30N 38°43' W 027°03'0 0.0
2018-Feb-15 22:00N 38°43' W 027°03'0 0.0
2018-Feb-15 21:30N 38°43' W 027°03'0 0.0
2018-Feb-15 21:00N 38°43' W 027°03'0 0.0
2018-Feb-15 20:30N 38°43' W 027°03'0 0.0
2018-Feb-15 19:59N 38°43' W 027°03'0 0.0
2018-Feb-15 19:30N 38°43' W 027°03'0 0.0
2018-Feb-15 19:00N 38°43' W 027°03'0 0.0
2018-Feb-15 18:30N 38°43' W 027°03'0 0.0
2018-Feb-15 18:00N 38°43' W 027°03'0 0.0
2018-Feb-15 17:30N 38°43' W 027°03'0 0.0
2018-Feb-15 17:00N 38°43' W 027°03'0 0.0
2018-Feb-15 16:31N 38°43' W 027°03'0 0.0
2018-Feb-15 16:00N 38°43' W 027°03'0 0.0
2018-Feb-15 15:30N 38°43' W 027°03'0 0.0
2018-Feb-15 15:00N 38°43' W 027°03'0 0.0
2018-Feb-15 14:30N 38°43' W 027°03'0 0.0
2018-Feb-15 14:01N 38°43' W 027°03'0 0.0
2018-Feb-15 13:30N 38°43' W 027°03'0 0.0
2018-Feb-15 13:00N 38°43' W 027°03'0 0.0
2018-Feb-15 12:30N 38°43' W 027°03'0 0.0
2018-Feb-15 12:01N 38°43' W 027°03'0 0.0
2018-Feb-15 11:30N 38°43' W 027°03'0 0.0
2018-Feb-15 11:00N 38°43' W 027°03'0 0.0
2018-Feb-15 10:30N 38°43' W 027°03'0 0.0
2018-Feb-15 10:00N 38°43' W 027°03'0 0.0
2018-Feb-15 09:30N 38°43' W 027°03'0 0.0
2018-Feb-15 09:00N 38°43' W 027°03'0 0.0
2018-Feb-15 08:30N 38°43' W 027°03'0 0.0
2018-Feb-15 08:00N 38°43' W 027°03'0 0.0
2018-Feb-15 07:30N 38°43' W 027°03'0 0.0
2018-Feb-15 07:00N 38°43' W 027°03'0 0.0
2018-Feb-15 06:31N 38°43' W 027°03'0 0.0
2018-Feb-15 06:00N 38°43' W 027°03'0 0.0
2018-Feb-15 05:31N 38°43' W 027°03'0 0.0
2018-Feb-15 05:00N 38°43' W 027°03'0 0.0
2018-Feb-15 04:30N 38°43' W 027°03'0 0.0
2018-Feb-15 04:01N 38°43' W 027°03'0 0.0
2018-Feb-15 03:30N 38°43' W 027°03'0 0.0
2018-Feb-15 03:00N 38°43' W 027°03'0 0.0
2018-Feb-15 02:31N 38°43' W 027°03'0 0.0
2018-Feb-15 02:00N 38°43' W 027°03'0 0.0
2018-Feb-15 01:30N 38°43' W 027°03'0 0.0
2018-Feb-15 01:00N 38°43' W 027°03'0 0.0
2018-Feb-15 00:31N 38°43' W 027°03'0 0.0
2018-Feb-15 00:00N 38°43' W 027°03'0 0.0
2018-Feb-14 23:30N 38°43' W 027°03'0 0.7
2018-Feb-14 23:01N 38°43' W 027°03'6 6.6
2018-Feb-14 22:04N 38°37' W 027°06'110.1
2018-Feb-14 21:56N 38°37' W 027°08'410.0
2018-Feb-14 21:29N 38°36' W 027°14'7 9.7
2018-Feb-14 20:48N 38°35' W 027°22'3 9.6
2018-Feb-14 20:30N 38°34' W 027°26'5 9.9
2018-Feb-14 20:00N 38°33' W 027°32'5 9.9
2018-Feb-14 19:31N 38°33' W 027°38'5 9.7
2018-Feb-14 19:00N 38°32' W 027°44'5 9.8
2018-Feb-14 18:30N 38°31' W 027°50'510.0
2018-Feb-14 18:00N 38°31' W 027°57'510.0
2018-Feb-14 17:31N 38°31' W 028°03'5 9.8
2018-Feb-14 17:00N 38°32' W 028°09'510.0
2018-Feb-14 16:30N 38°32' W 028°16'3 5.6
2018-Feb-14 16:01N 38°32' W 028°19'0 0.0
2018-Feb-14 15:30N 38°32' W 028°19'0 0.0
2018-Feb-14 15:00N 38°32' W 028°19'0 0.0
2018-Feb-14 14:31N 38°32' W 028°19'0 0.0
2018-Feb-14 14:00N 38°32' W 028°19'0 0.0
2018-Feb-14 13:30N 38°32' W 028°19'0 0.0
2018-Feb-14 13:00N 38°32' W 028°19'0 0.0
2018-Feb-14 12:30N 38°32' W 028°19'0 0.0
2018-Feb-14 12:00N 38°32' W 028°19'0 0.0
2018-Feb-14 11:30N 38°32' W 028°19'0 0.0
2018-Feb-14 11:00N 38°32' W 028°19'0 0.0
2018-Feb-14 10:30N 38°32' W 028°19'0 0.0
2018-Feb-14 10:00N 38°32' W 028°19'0 0.0
2018-Feb-14 09:30N 38°32' W 028°19'0 0.0
2018-Feb-14 09:00N 38°32' W 028°19'1 2.0
2018-Feb-14 08:30N 38°32' W 028°18'4 8.6
2018-Feb-14 08:00N 38°32' W 028°12'4 8.6
2018-Feb-14 07:30N 38°32' W 028°07'4 8.8
2018-Feb-14 07:00N 38°31' W 028°01'5 8.9
2018-Feb-14 06:30N 38°31' W 027°56'4 8.8
2018-Feb-14 06:00N 38°31' W 027°50'4 9.0
2018-Feb-14 05:30N 38°31' W 027°44'5 8.9
2018-Feb-14 04:59N 38°32' W 027°39'4 8.4
2018-Feb-14 04:31N 38°33' W 027°34'4 8.2
2018-Feb-14 04:00N 38°34' W 027°28'4 8.0
2018-Feb-14 03:30N 38°34' W 027°23'5 8.1
2018-Feb-14 02:54N 38°35' W 027°17'5 8.4
2018-Feb-14 02:19N 38°36' W 027°11'3 8.7
2018-Feb-14 02:00N 38°37' W 027°08'7 8.2
2018-Feb-14 01:12N 38°41' W 027°01'2 8.6
2018-Feb-14 00:58N 38°43' W 027°02'1 3.1
2018-Feb-14 00:30N 38°43' W 027°03'0 0.0
2018-Feb-14 00:00N 38°43' W 027°03'0 0.0
2018-Feb-13 23:31N 38°43' W 027°03'0 0.0
2018-Feb-13 23:00N 38°43' W 027°03'0 0.0
2018-Feb-13 22:30N 38°43' W 027°03'0 0.0
2018-Feb-13 22:00N 38°43' W 027°03'0 0.0
2018-Feb-13 21:30N 38°43' W 027°03'0 0.0
2018-Feb-13 21:00N 38°43' W 027°03'0 0.0
2018-Feb-13 20:30N 38°43' W 027°03'0 0.0
2018-Feb-13 20:00N 38°43' W 027°03'0 0.0
2018-Feb-13 19:30N 38°43' W 027°03'0 0.0
2018-Feb-13 19:01N 38°43' W 027°03'0 0.0
2018-Feb-13 18:30N 38°43' W 027°03'0 0.0
2018-Feb-13 18:00N 38°43' W 027°03'0 0.0
2018-Feb-13 17:30N 38°43' W 027°03'0 0.0
2018-Feb-13 17:00N 38°43' W 027°03'0 0.0
2018-Feb-13 16:30N 38°43' W 027°03'0 0.0
2018-Feb-13 16:00N 38°43' W 027°03'0 0.0
2018-Feb-13 15:31N 38°43' W 027°03'0 0.0
2018-Feb-13 15:00N 38°43' W 027°03'0 0.0
2018-Feb-13 14:30N 38°43' W 027°03'0 0.0
2018-Feb-13 14:01N 38°43' W 027°03'0 0.0
2018-Feb-13 13:30N 38°43' W 027°03'0 0.0
2018-Feb-13 13:00N 38°43' W 027°03'0 0.0
2018-Feb-13 12:30N 38°43' W 027°03'0 0.0
2018-Feb-13 12:00N 38°43' W 027°03'0 0.0
2018-Feb-13 11:30N 38°43' W 027°03'0 0.0
2018-Feb-13 11:00N 38°43' W 027°03'0 0.0
2018-Feb-13 10:30N 38°43' W 027°03'0 0.0
2018-Feb-13 10:00N 38°43' W 027°03'0 0.0
2018-Feb-13 09:30N 38°43' W 027°03'0 0.0
2018-Feb-13 09:00N 38°43' W 027°03'0 0.0
2018-Feb-13 08:30N 38°43' W 027°03'0 0.0
2018-Feb-13 08:00N 38°43' W 027°03'0 0.0
2018-Feb-13 07:30N 38°43' W 027°03'0 0.0
2018-Feb-13 07:00N 38°43' W 027°03'0 0.0
2018-Feb-13 06:30N 38°43' W 027°03'0 0.0
2018-Feb-13 06:00N 38°43' W 027°03'0 0.0
2018-Feb-13 05:30N 38°43' W 027°03'0 0.0
2018-Feb-13 05:00N 38°43' W 027°03'0 0.0
2018-Feb-13 04:30N 38°43' W 027°03'0 0.0
2018-Feb-13 04:00N 38°43' W 027°03'0 0.0
2018-Feb-13 03:30N 38°43' W 027°03'0 0.0
2018-Feb-13 03:00N 38°43' W 027°03'0 0.0
2018-Feb-13 02:30N 38°43' W 027°03'0 0.0
2018-Feb-13 02:00N 38°43' W 027°03'0 0.0
2018-Feb-13 01:30N 38°43' W 027°03'0 0.0
2018-Feb-13 01:00N 38°43' W 027°03'0 0.0
2018-Feb-13 00:30N 38°43' W 027°03'0 0.0
2018-Feb-13 00:00N 38°43' W 027°03'0 0.0
2018-Feb-12 23:30N 38°43' W 027°03'0 0.0
2018-Feb-12 23:00N 38°43' W 027°03'0 0.0
2018-Feb-12 22:30N 38°43' W 027°03'0 0.0
2018-Feb-12 22:00N 38°43' W 027°03'0 0.0
2018-Feb-12 21:30N 38°43' W 027°03'0 0.0
2018-Feb-12 21:00N 38°43' W 027°03'0 0.0
2018-Feb-12 20:30N 38°43' W 027°03'0 0.0
2018-Feb-12 20:00N 38°43' W 027°03'0 0.0
2018-Feb-12 19:30N 38°43' W 027°03'0 0.0
2018-Feb-12 19:01N 38°43' W 027°03'0 0.0
2018-Feb-12 18:30N 38°43' W 027°03'0 0.0
2018-Feb-12 18:00N 38°43' W 027°03'0 0.0
2018-Feb-12 17:30N 38°43' W 027°03'0 0.0
2018-Feb-12 17:00N 38°43' W 027°03'0 0.0
2018-Feb-12 16:30N 38°43' W 027°03'0 0.0
2018-Feb-12 16:00N 38°43' W 027°03'0 0.0
2018-Feb-12 15:30N 38°43' W 027°03'0 0.0
2018-Feb-12 15:00N 38°43' W 027°03'0 0.0
2018-Feb-12 14:30N 38°43' W 027°03'0 0.0
2018-Feb-12 14:00N 38°43' W 027°03'0 0.0
2018-Feb-12 13:30N 38°43' W 027°03'0 0.0
2018-Feb-12 13:01N 38°43' W 027°03'0 0.0
2018-Feb-12 12:30N 38°43' W 027°03'0 0.0
2018-Feb-12 12:00N 38°43' W 027°03'0 0.0
2018-Feb-12 11:30N 38°43' W 027°03'0 0.0
2018-Feb-12 11:00N 38°43' W 027°03'0 0.0
2018-Feb-12 10:31N 38°43' W 027°03'0 0.0
2018-Feb-12 10:00N 38°43' W 027°03'0 0.0
2018-Feb-12 09:30N 38°43' W 027°03'0 0.0
2018-Feb-12 09:01N 38°43' W 027°03'0 0.0
2018-Feb-12 08:30N 38°43' W 027°03'0 0.0
2018-Feb-12 08:00N 38°43' W 027°03'0 0.0
2018-Feb-12 07:31N 38°43' W 027°03'0 0.0
2018-Feb-12 07:00N 38°43' W 027°03'0 0.0
2018-Feb-12 06:30N 38°43' W 027°03'0 0.0
2018-Feb-12 06:01N 38°43' W 027°03'0 0.0
2018-Feb-12 05:30N 38°43' W 027°03'0 0.0
2018-Feb-12 05:00N 38°43' W 027°03'0 0.0
2018-Feb-12 04:30N 38°43' W 027°03'0 0.0
2018-Feb-12 04:00N 38°43' W 027°03'0 0.0
2018-Feb-12 03:30N 38°43' W 027°03'0 0.0
2018-Feb-12 03:00N 38°43' W 027°03'0 0.0
2018-Feb-12 02:30N 38°43' W 027°03'0 0.0
2018-Feb-12 02:00N 38°43' W 027°03'0 0.0
2018-Feb-12 01:30N 38°43' W 027°03'0 0.0
2018-Feb-12 01:00N 38°43' W 027°03'0 0.0
2018-Feb-12 00:30N 38°43' W 027°03'0 0.0
2018-Feb-12 00:00N 38°43' W 027°03'0 0.0
2018-Feb-11 23:30N 38°43' W 027°03'0 0.0
2018-Feb-11 23:00N 38°43' W 027°03'0 0.0
2018-Feb-11 22:30N 38°43' W 027°03'0 0.0
2018-Feb-11 22:00N 38°43' W 027°03'0 0.0
2018-Feb-11 21:30N 38°43' W 027°03'0 0.0
2018-Feb-11 21:00N 38°43' W 027°03'0 0.0
2018-Feb-11 20:30N 38°43' W 027°03'0 0.0
2018-Feb-11 20:00N 38°43' W 027°03'0 0.0
2018-Feb-11 19:30N 38°43' W 027°03'0 0.0
2018-Feb-11 19:00N 38°43' W 027°03'0 0.0
2018-Feb-11 18:30N 38°43' W 027°03'0 0.0
2018-Feb-11 18:00N 38°43' W 027°03'0 0.0
2018-Feb-11 17:30N 38°43' W 027°03'0 0.0
2018-Feb-11 17:00N 38°43' W 027°03'0 0.0
2018-Feb-11 16:30N 38°43' W 027°03'0 0.0
2018-Feb-11 16:00N 38°43' W 027°03'0 0.0
2018-Feb-11 15:30N 38°43' W 027°03'0 0.0
2018-Feb-11 15:00N 38°43' W 027°03'0 0.0
2018-Feb-11 14:30N 38°43' W 027°03'0 0.0
2018-Feb-11 13:57N 38°43' W 027°03'0 0.0
2018-Feb-11 13:30N 38°43' W 027°03'0 0.0
2018-Feb-11 13:00N 38°43' W 027°03'0 0.0
2018-Feb-11 12:30N 38°43' W 027°03'0 0.0
2018-Feb-11 12:00N 38°43' W 027°03'0 0.0
2018-Feb-11 11:30N 38°43' W 027°03'0 0.0
2018-Feb-11 11:00N 38°43' W 027°03'0 0.0
2018-Feb-11 10:30N 38°43' W 027°03'0 0.0
2018-Feb-11 10:00N 38°43' W 027°03'0 0.0
2018-Feb-11 09:30N 38°43' W 027°03'0 0.0
2018-Feb-11 09:01N 38°43' W 027°03'0 0.0
2018-Feb-11 08:30N 38°43' W 027°03'0 0.0
2018-Feb-11 08:00N 38°43' W 027°03'0 0.0
2018-Feb-11 07:30N 38°43' W 027°03'0 0.0
2018-Feb-11 07:00N 38°43' W 027°03'0 0.0
2018-Feb-11 06:30N 38°43' W 027°03'0 0.0
2018-Feb-11 06:01N 38°43' W 027°03'0 0.0
2018-Feb-11 05:31N 38°43' W 027°03'0 0.0
2018-Feb-11 05:00N 38°43' W 027°03'0 0.0
2018-Feb-11 04:30N 38°43' W 027°03'0 0.0
2018-Feb-11 04:00N 38°43' W 027°03'0 0.0
2018-Feb-11 03:30N 38°43' W 027°03'0 0.0
2018-Feb-11 03:01N 38°43' W 027°03'0 0.0
2018-Feb-11 02:30N 38°43' W 027°03'0 0.0
2018-Feb-11 02:00N 38°43' W 027°03'0 0.0
2018-Feb-11 01:30N 38°43' W 027°03'0 0.0
2018-Feb-11 01:00N 38°43' W 027°03'0 0.0
2018-Feb-11 00:30N 38°43' W 027°03'0 0.0
2018-Feb-11 00:00N 38°43' W 027°03'0 0.0
2018-Feb-10 23:30N 38°43' W 027°03'0 0.0
2018-Feb-10 23:01N 38°43' W 027°03'0 0.0
2018-Feb-10 22:30N 38°43' W 027°03'0 0.0
2018-Feb-10 22:00N 38°43' W 027°03'0 0.0
2018-Feb-10 21:31N 38°43' W 027°03'0 0.0
2018-Feb-10 21:00N 38°43' W 027°03'0 0.0
2018-Feb-10 20:30N 38°43' W 027°03'0 0.0
2018-Feb-10 20:00N 38°43' W 027°03'0 0.0
2018-Feb-10 19:30N 38°43' W 027°03'0 0.0
2018-Feb-10 19:00N 38°43' W 027°03'0 0.0
2018-Feb-10 18:30N 38°43' W 027°03'0 0.0
2018-Feb-10 18:00N 38°43' W 027°03'0 0.0
2018-Feb-10 17:30N 38°43' W 027°03'0 0.0
2018-Feb-10 17:00N 38°43' W 027°03'0 0.0
2018-Feb-10 16:30N 38°43' W 027°03'0 0.0
2018-Feb-10 16:00N 38°43' W 027°03'0 0.0
2018-Feb-10 15:30N 38°43' W 027°03'0 0.0
2018-Feb-10 15:00N 38°43' W 027°03'0 0.0
2018-Feb-10 14:30N 38°43' W 027°03'0 0.0
2018-Feb-10 14:00N 38°43' W 027°03'0 0.0
2018-Feb-10 13:30N 38°43' W 027°03'0 0.0
2018-Feb-10 13:00N 38°43' W 027°03'0 0.0
2018-Feb-10 12:30N 38°43' W 027°03'0 0.0
2018-Feb-10 12:00N 38°43' W 027°03'0 0.0
2018-Feb-10 11:30N 38°43' W 027°03'0 0.0
2018-Feb-10 11:00N 38°43' W 027°03'0 0.0
2018-Feb-10 10:30N 38°43' W 027°03'0 0.0
2018-Feb-10 10:00N 38°43' W 027°03'0 0.0
2018-Feb-10 09:30N 38°43' W 027°03'0 0.0
2018-Feb-10 09:00N 38°43' W 027°03'0 0.0
2018-Feb-10 08:30N 38°43' W 027°03'0 0.0
2018-Feb-10 08:00N 38°43' W 027°03'0 0.0
2018-Feb-10 07:30N 38°43' W 027°03'0 0.0
2018-Feb-10 07:01N 38°43' W 027°03'0 0.0
2018-Feb-10 06:30N 38°43' W 027°03'0 0.0
2018-Feb-10 06:00N 38°43' W 027°03'0 0.0
2018-Feb-10 05:30N 38°43' W 027°03'0 0.0
2018-Feb-10 05:00N 38°43' W 027°03'0 0.0
2018-Feb-10 04:29N 38°43' W 027°03'0 0.0
2018-Feb-10 04:00N 38°43' W 027°03'0 0.0
2018-Feb-10 03:31N 38°43' W 027°03'0 0.0
2018-Feb-10 03:00N 38°43' W 027°03'0 0.0
2018-Feb-10 02:30N 38°43' W 027°03'0 0.0
2018-Feb-10 02:00N 38°43' W 027°03'0 0.0
2018-Feb-10 01:31N 38°43' W 027°03'0 0.0
2018-Feb-10 01:00N 38°43' W 027°03'0 0.0
2018-Feb-10 00:30N 38°43' W 027°03'0 0.0
2018-Feb-10 00:00N 38°43' W 027°03'0 0.0
2018-Feb-09 23:30N 38°43' W 027°03'0 0.0
2018-Feb-09 23:00N 38°43' W 027°03'0 0.0
2018-Feb-09 22:46N 38°43' W 027°03'28 7.4
2018-Feb-09 19:00N 38°57' W 027°34'5 9.6
2018-Feb-09 18:30N 38°58' W 027°40'  

Dump ship's entire track history